M I D A S
Marine Information and Data Acquisition System
Tripno 817 of the Zeeleeuw from 2004-12-10 08:16:39 to 2004-12-10 13:07:11
Back to CruiseResearch ActivitiesStationsMapUnderway DataData graphs

EquipmentUnitsComment
TimeDGPSUTC
LatitudeDGPSDM.mWGS84
LongitudeDGPSDM.mWGS84
TemperatureSBE03/SBE38deg celciusITS90
ConductivitySBE21S/mITS90
SalinitySBE21 Practical Salinity Units
ChlorophylAChelsea fluorimeterg/lCalibrated in Aceton
Missing or incorrect values are displayed as -999
Sea surface data collected by the RV Zeeleeuw from 2004-12-10 07:56:23 to 2004-12-10 12:17:53
Time Latitude Longitude Temperature Conductivity Salinity ChlorophylA
2004-12-10 07:57:34 51°13.575 2°56.127 13.867563 0.068775 0.446609 -0.848668
2004-12-10 07:58:45 51°13.557 2°56.164 13.870864 0.068775 0.446573 -0.848668
2004-12-10 08:00:24 51°13.56 2°56.159 13.765324 0.068775 0.446501 -0.848668
2004-12-10 08:01:23 51°13.581 2°56.095 13.922235 0.068775 0.44642 -0.814958
2004-12-10 08:02:50 51°13.593 2°56.076 13.942983 0.068775 0.446429 -0.848668
2004-12-10 08:04:13 51°13.596 2°56.104 13.848994 0.068775 0.446357 -0.882377
2004-12-10 08:05:13 51°13.597 2°56.107 13.958708 0.068775 0.446357 -0.848668
2004-12-10 08:06:34 51°13.598 2°56.106 13.881486 0.068775 0.446285 -0.882377
2004-12-10 08:07:33 51°13.598 2°56.106 13.809781 0.068879 0.44695 -0.814958
2004-12-10 08:09:00 51°13.598 2°56.107 13.829414 0.068879 0.446851 -0.882377
2004-12-10 08:10:57 51°13.599 2°56.108 13.843872 0.068879 0.446788 -0.814958
2004-12-10 08:11:56 51°13.599 2°56.108 13.841095 0.068879 0.446743 -0.848668
2004-12-10 08:12:56 51°13.599 2°56.107 13.850047 0.068879 0.446761 -0.814958
2004-12-10 08:14:18 51°13.598 2°56.107 13.863974 0.068879 0.446662 -0.814958
2004-12-10 08:15:50 51°13.598 2°56.107 13.874405 0.068879 0.44659 -0.848668
2004-12-10 08:17:00 51°13.597 2°56.106 14.030354 0.068879 0.446608 -0.848668
2004-12-10 08:18:12 51°13.597 2°56.106 14.054171 0.068879 0.446599 -0.848668
2004-12-10 08:19:19 51°13.603 2°56.077 13.915637 0.068879 0.446437 -0.848668
2004-12-10 08:20:24 51°13.626 2°55.988 13.970845 0.068879 0.446437 -0.882377
2004-12-10 08:21:34 51°13.668 2°55.871 14.012783 0.068879 0.446509 -0.848668
2004-12-10 08:23:01 51°13.706 2°55.74 14.093436 0.068879 0.446527 -0.848668
2004-12-10 08:24:18 51°13.707 2°55.746 14.074021 0.068879 0.446509 -0.848668
2004-12-10 08:25:22 51°13.73 2°55.74 14.310398 0.068879 0.446635 -0.882377
2004-12-10 08:26:32 51°13.815 2°55.649 13.957513 0.068879 0.446626 -0.848668
2004-12-10 08:28:00 51°13.98 2°55.521 14.006193 0.068879 0.446626 -0.848668
2004-12-10 08:29:10 51°14.127 2°55.413 14.054314 0.068879 0.446617 -0.848668
2004-12-10 08:30:14 51°14.26 2°55.263 14.076931 0.068879 0.44659 -0.848668
2004-12-10 08:31:30 51°14.387 2°54.96 14.283909 0.068879 0.446608 -0.848668
2004-12-10 08:32:50 51°14.408 2°54.517 14.249987 0.068879 0.446626 -0.814958
2004-12-10 08:33:57 51°14.323 2°54.164 14.139638 0.068983 0.447038 -0.848668
2004-12-10 08:35:10 51°14.191 2°53.803 14.114943 0.068983 0.446939 -0.848668
2004-12-10 09:13:50 51°10.496 2°42.402 14.395169 0.068671 0.44644 -0.848668